sensor_id;sensor_type;location;lat;lon;timestamp;P1;durP1;ratioP1;P2;durP2;ratioP2
80340;SDS011;69656;44.498;0.166;2023-08-06T00:00:53;16.23;;;2.70;;
80340;SDS011;69656;44.498;0.166;2023-08-06T00:06:26;18.60;;;2.90;;
80340;SDS011;69656;44.498;0.166;2023-08-06T00:11:59;18.97;;;2.57;;
80340;SDS011;69656;44.498;0.166;2023-08-06T00:17:32;20.17;;;2.70;;
80340;SDS011;69656;44.498;0.166;2023-08-06T00:23:05;15.23;;;3.57;;
80340;SDS011;69656;44.498;0.166;2023-08-06T00:28:38;22.83;;;2.77;;
80340;SDS011;69656;44.498;0.166;2023-08-06T00:34:11;15.93;;;3.60;;
80340;SDS011;69656;44.498;0.166;2023-08-06T00:39:45;21.83;;;3.17;;
80340;SDS011;69656;44.498;0.166;2023-08-06T00:45:16;30.63;;;4.07;;
80340;SDS011;69656;44.498;0.166;2023-08-06T00:50:50;21.00;;;3.13;;
80340;SDS011;69656;44.498;0.166;2023-08-06T00:56:22;20.03;;;2.63;;
80340;SDS011;69656;44.498;0.166;2023-08-06T01:01:56;14.80;;;3.23;;
80340;SDS011;69656;44.498;0.166;2023-08-06T01:07:33;20.23;;;2.47;;
80340;SDS011;69656;44.498;0.166;2023-08-06T01:13:04;33.03;;;3.50;;
80340;SDS011;69656;44.498;0.166;2023-08-06T01:18:33;17.03;;;2.77;;
80340;SDS011;69656;44.498;0.166;2023-08-06T01:24:07;15.07;;;2.60;;
80340;SDS011;69656;44.498;0.166;2023-08-06T01:29:41;21.50;;;3.43;;
80340;SDS011;69656;44.498;0.166;2023-08-06T01:35:13;21.23;;;3.07;;
80340;SDS011;69656;44.498;0.166;2023-08-06T01:40:44;16.57;;;2.63;;
80340;SDS011;69656;44.498;0.166;2023-08-06T01:46:17;13.67;;;2.10;;
80340;SDS011;69656;44.498;0.166;2023-08-06T01:51:50;11.83;;;2.30;;
80340;SDS011;69656;44.498;0.166;2023-08-06T01:57:22;17.80;;;1.97;;
80340;SDS011;69656;44.498;0.166;2023-08-06T02:02:55;13.83;;;2.73;;
80340;SDS011;69656;44.498;0.166;2023-08-06T02:14:01;20.03;;;3.67;;
80340;SDS011;69656;44.498;0.166;2023-08-06T02:19:33;17.80;;;2.53;;
80340;SDS011;69656;44.498;0.166;2023-08-06T02:25:07;26.57;;;2.90;;
80340;SDS011;69656;44.498;0.166;2023-08-06T02:36:12;16.07;;;2.13;;
80340;SDS011;69656;44.498;0.166;2023-08-06T02:41:45;16.23;;;3.17;;
80340;SDS011;69656;44.498;0.166;2023-08-06T02:47:17;22.20;;;3.07;;
80340;SDS011;69656;44.498;0.166;2023-08-06T02:52:51;15.80;;;2.67;;
80340;SDS011;69656;44.498;0.166;2023-08-06T02:58:22;13.93;;;3.37;;
80340;SDS011;69656;44.498;0.166;2023-08-06T03:03:56;20.43;;;2.30;;
80340;SDS011;69656;44.498;0.166;2023-08-06T03:09:29;14.10;;;2.63;;
80340;SDS011;69656;44.498;0.166;2023-08-06T03:15:01;14.37;;;2.47;;
80340;SDS011;69656;44.498;0.166;2023-08-06T03:20:34;17.77;;;2.83;;
80340;SDS011;69656;44.498;0.166;2023-08-06T03:26:08;19.60;;;4.33;;
80340;SDS011;69656;44.498;0.166;2023-08-06T03:31:40;23.90;;;3.53;;
80340;SDS011;69656;44.498;0.166;2023-08-06T03:37:13;13.97;;;2.03;;
80340;SDS011;69656;44.498;0.166;2023-08-06T03:42:46;15.77;;;2.10;;
80340;SDS011;69656;44.498;0.166;2023-08-06T03:48:19;29.17;;;3.23;;
80340;SDS011;69656;44.498;0.166;2023-08-06T03:53:52;21.87;;;2.53;;
80340;SDS011;69656;44.498;0.166;2023-08-06T03:59:24;14.77;;;2.93;;
80340;SDS011;69656;44.498;0.166;2023-08-06T04:04:58;19.03;;;3.23;;
80340;SDS011;69656;44.498;0.166;2023-08-06T04:10:30;25.10;;;2.13;;
80340;SDS011;69656;44.498;0.166;2023-08-06T04:16:03;25.57;;;3.57;;
80340;SDS011;69656;44.498;0.166;2023-08-06T04:21:35;14.00;;;2.57;;
80340;SDS011;69656;44.498;0.166;2023-08-06T04:27:08;13.47;;;2.07;;
80340;SDS011;69656;44.498;0.166;2023-08-06T04:32:39;10.57;;;2.33;;
80340;SDS011;69656;44.498;0.166;2023-08-06T04:38:11;17.27;;;1.90;;
80340;SDS011;69656;44.498;0.166;2023-08-06T04:43:44;14.23;;;2.50;;
80340;SDS011;69656;44.498;0.166;2023-08-06T04:49:17;18.73;;;2.20;;
80340;SDS011;69656;44.498;0.166;2023-08-06T04:54:50;18.17;;;2.17;;
80340;SDS011;69656;44.498;0.166;2023-08-06T05:00:23;16.20;;;3.40;;
80340;SDS011;69656;44.498;0.166;2023-08-06T05:05:56;18.63;;;2.23;;
80340;SDS011;69656;44.498;0.166;2023-08-06T05:11:29;17.70;;;1.90;;
80340;SDS011;69656;44.498;0.166;2023-08-06T05:17:02;17.40;;;3.20;;
80340;SDS011;69656;44.498;0.166;2023-08-06T05:22:36;17.87;;;2.80;;
80340;SDS011;69656;44.498;0.166;2023-08-06T05:28:09;13.67;;;1.90;;
80340;SDS011;69656;44.498;0.166;2023-08-06T05:33:44;9.47;;;1.97;;
80340;SDS011;69656;44.498;0.166;2023-08-06T05:39:15;15.47;;;2.57;;
80340;SDS011;69656;44.498;0.166;2023-08-06T05:44:48;19.67;;;2.57;;
80340;SDS011;69656;44.498;0.166;2023-08-06T05:50:21;15.53;;;2.50;;
80340;SDS011;69656;44.498;0.166;2023-08-06T05:55:55;17.90;;;2.33;;
80340;SDS011;69656;44.498;0.166;2023-08-06T06:01:27;19.87;;;2.73;;
80340;SDS011;69656;44.498;0.166;2023-08-06T06:07:01;19.20;;;3.03;;
80340;SDS011;69656;44.498;0.166;2023-08-06T06:12:33;17.07;;;2.63;;
80340;SDS011;69656;44.498;0.166;2023-08-06T06:18:06;23.10;;;2.93;;
80340;SDS011;69656;44.498;0.166;2023-08-06T06:23:39;9.63;;;1.80;;
80340;SDS011;69656;44.498;0.166;2023-08-06T06:29:11;22.13;;;2.33;;
80340;SDS011;69656;44.498;0.166;2023-08-06T06:34:43;12.37;;;1.50;;
80340;SDS011;69656;44.498;0.166;2023-08-06T06:40:16;12.07;;;1.73;;
80340;SDS011;69656;44.498;0.166;2023-08-06T06:45:52;6.70;;;1.37;;
80340;SDS011;69656;44.498;0.166;2023-08-06T06:51:22;11.87;;;1.67;;
80340;SDS011;69656;44.498;0.166;2023-08-06T06:56:54;12.87;;;1.70;;
80340;SDS011;69656;44.498;0.166;2023-08-06T07:02:28;17.40;;;3.57;;
80340;SDS011;69656;44.498;0.166;2023-08-06T07:08:00;15.47;;;1.80;;
80340;SDS011;69656;44.498;0.166;2023-08-06T07:13:34;14.47;;;2.93;;
80340;SDS011;69656;44.498;0.166;2023-08-06T07:19:06;9.77;;;1.80;;
80340;SDS011;69656;44.498;0.166;2023-08-06T07:24:38;8.13;;;1.57;;
80340;SDS011;69656;44.498;0.166;2023-08-06T07:30:11;11.53;;;2.27;;
80340;SDS011;69656;44.498;0.166;2023-08-06T07:35:44;14.90;;;2.20;;
80340;SDS011;69656;44.498;0.166;2023-08-06T07:41:17;18.47;;;1.70;;
80340;SDS011;69656;44.498;0.166;2023-08-06T07:46:50;19.53;;;2.50;;
80340;SDS011;69656;44.498;0.166;2023-08-06T07:52:22;5.50;;;1.20;;
80340;SDS011;69656;44.498;0.166;2023-08-06T07:57:55;12.70;;;1.90;;
80340;SDS011;69656;44.498;0.166;2023-08-06T08:03:28;15.40;;;2.30;;
80340;SDS011;69656;44.498;0.166;2023-08-06T08:09:00;11.83;;;1.83;;
80340;SDS011;69656;44.498;0.166;2023-08-06T08:14:33;11.80;;;2.90;;
80340;SDS011;69656;44.498;0.166;2023-08-06T08:20:07;10.90;;;1.60;;
80340;SDS011;69656;44.498;0.166;2023-08-06T08:25:39;13.87;;;1.87;;
80340;SDS011;69656;44.498;0.166;2023-08-06T08:31:11;10.23;;;2.20;;
80340;SDS011;69656;44.498;0.166;2023-08-06T08:36:44;8.40;;;1.97;;
80340;SDS011;69656;44.498;0.166;2023-08-06T08:42:17;10.57;;;1.43;;
80340;SDS011;69656;44.498;0.166;2023-08-06T08:47:49;17.83;;;2.13;;
80340;SDS011;69656;44.498;0.166;2023-08-06T08:53:22;15.60;;;1.50;;
80340;SDS011;69656;44.498;0.166;2023-08-06T08:58:55;9.10;;;1.87;;
80340;SDS011;69656;44.498;0.166;2023-08-06T09:04:29;5.30;;;1.83;;
80340;SDS011;69656;44.498;0.166;2023-08-06T09:10:01;5.57;;;1.17;;
80340;SDS011;69656;44.498;0.166;2023-08-06T09:15:34;6.83;;;1.97;;
80340;SDS011;69656;44.498;0.166;2023-08-06T09:21:07;4.33;;;1.03;;
80340;SDS011;69656;44.498;0.166;2023-08-06T09:26:41;5.37;;;1.07;;
80340;SDS011;69656;44.498;0.166;2023-08-06T09:32:13;6.17;;;1.40;;
80340;SDS011;69656;44.498;0.166;2023-08-06T09:37:45;9.80;;;1.27;;
80340;SDS011;69656;44.498;0.166;2023-08-06T09:43:18;6.63;;;1.70;;
80340;SDS011;69656;44.498;0.166;2023-08-06T09:48:50;2.67;;;1.27;;
80340;SDS011;69656;44.498;0.166;2023-08-06T09:54:22;13.30;;;2.53;;
80340;SDS011;69656;44.498;0.166;2023-08-06T09:59:55;2.80;;;1.10;;
80340;SDS011;69656;44.498;0.166;2023-08-06T10:05:28;10.00;;;2.23;;
80340;SDS011;69656;44.498;0.166;2023-08-06T10:11:01;7.70;;;1.50;;
80340;SDS011;69656;44.498;0.166;2023-08-06T10:16:33;5.37;;;1.00;;
80340;SDS011;69656;44.498;0.166;2023-08-06T10:22:08;5.97;;;1.47;;
80340;SDS011;69656;44.498;0.166;2023-08-06T10:27:39;5.00;;;1.13;;
80340;SDS011;69656;44.498;0.166;2023-08-06T10:33:11;5.90;;;1.20;;
80340;SDS011;69656;44.498;0.166;2023-08-06T10:38:44;5.23;;;1.07;;
80340;SDS011;69656;44.498;0.166;2023-08-06T10:44:16;4.87;;;1.80;;
80340;SDS011;69656;44.498;0.166;2023-08-06T10:49:48;5.80;;;1.10;;
80340;SDS011;69656;44.498;0.166;2023-08-06T10:55:23;5.13;;;1.00;;
80340;SDS011;69656;44.498;0.166;2023-08-06T11:00:54;5.13;;;1.13;;
80340;SDS011;69656;44.498;0.166;2023-08-06T11:06:27;5.30;;;0.90;;
80340;SDS011;69656;44.498;0.166;2023-08-06T11:11:59;6.97;;;1.90;;
80340;SDS011;69656;44.498;0.166;2023-08-06T11:17:33;12.47;;;1.97;;
80340;SDS011;69656;44.498;0.166;2023-08-06T11:23:05;8.77;;;1.50;;
80340;SDS011;69656;44.498;0.166;2023-08-06T11:28:38;8.97;;;1.60;;
80340;SDS011;69656;44.498;0.166;2023-08-06T11:34:12;5.10;;;1.17;;
80340;SDS011;69656;44.498;0.166;2023-08-06T11:39:46;7.43;;;1.60;;
80340;SDS011;69656;44.498;0.166;2023-08-06T11:45:21;5.37;;;1.33;;
80340;SDS011;69656;44.498;0.166;2023-08-06T11:50:54;5.60;;;1.03;;
80340;SDS011;69656;44.498;0.166;2023-08-06T11:56:25;2.17;;;0.80;;
80340;SDS011;69656;44.498;0.166;2023-08-06T12:01:57;2.53;;;1.00;;
80340;SDS011;69656;44.498;0.166;2023-08-06T12:07:29;3.03;;;1.00;;
80340;SDS011;69656;44.498;0.166;2023-08-06T12:13:01;4.20;;;0.90;;
80340;SDS011;69656;44.498;0.166;2023-08-06T12:18:34;6.17;;;0.93;;
80340;SDS011;69656;44.498;0.166;2023-08-06T12:24:08;7.47;;;1.10;;
80340;SDS011;69656;44.498;0.166;2023-08-06T12:29:42;4.23;;;1.00;;
80340;SDS011;69656;44.498;0.166;2023-08-06T12:35:15;4.00;;;1.10;;
80340;SDS011;69656;44.498;0.166;2023-08-06T12:40:48;4.63;;;1.00;;
80340;SDS011;69656;44.498;0.166;2023-08-06T12:46:22;10.80;;;1.53;;
80340;SDS011;69656;44.498;0.166;2023-08-06T12:51:56;7.43;;;1.20;;
80340;SDS011;69656;44.498;0.166;2023-08-06T12:57:28;6.30;;;1.17;;
80340;SDS011;69656;44.498;0.166;2023-08-06T13:03:02;2.23;;;1.33;;
80340;SDS011;69656;44.498;0.166;2023-08-06T13:08:36;6.47;;;1.13;;
80340;SDS011;69656;44.498;0.166;2023-08-06T13:14:08;4.23;;;1.20;;
80340;SDS011;69656;44.498;0.166;2023-08-06T13:19:40;3.70;;;0.77;;
80340;SDS011;69656;44.498;0.166;2023-08-06T13:25:13;4.73;;;0.90;;
80340;SDS011;69656;44.498;0.166;2023-08-06T13:30:46;0.80;;;0.70;;
80340;SDS011;69656;44.498;0.166;2023-08-06T13:36:19;3.73;;;1.33;;
80340;SDS011;69656;44.498;0.166;2023-08-06T13:41:52;3.47;;;1.00;;
80340;SDS011;69656;44.498;0.166;2023-08-06T13:47:25;2.70;;;1.10;;
80340;SDS011;69656;44.498;0.166;2023-08-06T13:52:58;2.30;;;0.80;;
80340;SDS011;69656;44.498;0.166;2023-08-06T13:58:31;3.23;;;1.10;;
80340;SDS011;69656;44.498;0.166;2023-08-06T14:04:02;0.60;;;0.53;;
80340;SDS011;69656;44.498;0.166;2023-08-06T14:09:34;3.60;;;0.83;;
80340;SDS011;69656;44.498;0.166;2023-08-06T14:15:08;3.27;;;1.10;;
80340;SDS011;69656;44.498;0.166;2023-08-06T14:20:40;3.77;;;1.00;;
80340;SDS011;69656;44.498;0.166;2023-08-06T14:26:12;3.73;;;1.10;;
80340;SDS011;69656;44.498;0.166;2023-08-06T14:31:44;5.17;;;1.83;;
80340;SDS011;69656;44.498;0.166;2023-08-06T14:37:16;5.10;;;1.33;;
80340;SDS011;69656;44.498;0.166;2023-08-06T14:42:50;2.60;;;0.97;;
80340;SDS011;69656;44.498;0.166;2023-08-06T14:48:22;7.80;;;1.20;;
80340;SDS011;69656;44.498;0.166;2023-08-06T14:53:55;2.73;;;1.10;;
80340;SDS011;69656;44.498;0.166;2023-08-06T14:59:28;5.03;;;1.27;;
80340;SDS011;69656;44.498;0.166;2023-08-06T15:05:02;4.07;;;1.63;;
80340;SDS011;69656;44.498;0.166;2023-08-06T15:10:35;2.40;;;1.10;;
80340;SDS011;69656;44.498;0.166;2023-08-06T15:16:08;5.00;;;1.30;;
80340;SDS011;69656;44.498;0.166;2023-08-06T15:21:41;2.50;;;0.90;;
80340;SDS011;69656;44.498;0.166;2023-08-06T15:27:14;2.27;;;1.33;;
80340;SDS011;69656;44.498;0.166;2023-08-06T15:32:48;2.30;;;0.80;;
80340;SDS011;69656;44.498;0.166;2023-08-06T15:38:19;5.33;;;1.40;;
80340;SDS011;69656;44.498;0.166;2023-08-06T15:43:52;2.37;;;1.23;;
80340;SDS011;69656;44.498;0.166;2023-08-06T15:49:26;2.40;;;1.10;;
80340;SDS011;69656;44.498;0.166;2023-08-06T15:54:58;2.17;;;0.90;;
80340;SDS011;69656;44.498;0.166;2023-08-06T16:00:29;3.97;;;1.10;;
80340;SDS011;69656;44.498;0.166;2023-08-06T16:06:02;3.57;;;1.00;;
80340;SDS011;69656;44.498;0.166;2023-08-06T16:11:35;5.27;;;0.97;;
80340;SDS011;69656;44.498;0.166;2023-08-06T16:17:07;6.17;;;1.47;;
80340;SDS011;69656;44.498;0.166;2023-08-06T16:22:38;3.50;;;1.13;;
80340;SDS011;69656;44.498;0.166;2023-08-06T16:28:11;5.50;;;1.23;;
80340;SDS011;69656;44.498;0.166;2023-08-06T16:33:43;4.10;;;1.00;;
80340;SDS011;69656;44.498;0.166;2023-08-06T16:39:15;3.83;;;1.20;;
80340;SDS011;69656;44.498;0.166;2023-08-06T16:44:48;7.60;;;1.20;;
80340;SDS011;69656;44.498;0.166;2023-08-06T16:50:21;3.07;;;1.00;;
80340;SDS011;69656;44.498;0.166;2023-08-06T16:55:55;2.27;;;1.10;;
80340;SDS011;69656;44.498;0.166;2023-08-06T17:01:28;8.03;;;1.40;;
80340;SDS011;69656;44.498;0.166;2023-08-06T17:07:01;6.30;;;1.03;;
80340;SDS011;69656;44.498;0.166;2023-08-06T17:12:33;6.40;;;0.90;;
80340;SDS011;69656;44.498;0.166;2023-08-06T17:18:06;4.37;;;0.90;;
80340;SDS011;69656;44.498;0.166;2023-08-06T17:23:38;3.57;;;0.87;;
80340;SDS011;69656;44.498;0.166;2023-08-06T17:29:10;6.57;;;1.27;;
80340;SDS011;69656;44.498;0.166;2023-08-06T17:34:42;6.10;;;1.13;;
80340;SDS011;69656;44.498;0.166;2023-08-06T17:40:14;2.33;;;1.30;;
80340;SDS011;69656;44.498;0.166;2023-08-06T17:45:47;3.30;;;1.30;;
80340;SDS011;69656;44.498;0.166;2023-08-06T17:51:19;3.77;;;0.90;;
80340;SDS011;69656;44.498;0.166;2023-08-06T17:56:52;2.83;;;0.70;;
80340;SDS011;69656;44.498;0.166;2023-08-06T18:02:26;3.97;;;1.17;;
80340;SDS011;69656;44.498;0.166;2023-08-06T18:07:59;2.83;;;1.30;;
80340;SDS011;69656;44.498;0.166;2023-08-06T18:13:33;3.77;;;0.90;;
80340;SDS011;69656;44.498;0.166;2023-08-06T18:19:05;1.33;;;0.80;;
80340;SDS011;69656;44.498;0.166;2023-08-06T18:24:39;3.80;;;0.97;;
80340;SDS011;69656;44.498;0.166;2023-08-06T18:30:11;2.27;;;0.83;;
80340;SDS011;69656;44.498;0.166;2023-08-06T18:35:45;2.83;;;0.60;;
80340;SDS011;69656;44.498;0.166;2023-08-06T18:41:18;8.00;;;0.80;;
80340;SDS011;69656;44.498;0.166;2023-08-06T18:46:49;2.70;;;0.90;;
80340;SDS011;69656;44.498;0.166;2023-08-06T18:52:21;4.13;;;0.97;;
80340;SDS011;69656;44.498;0.166;2023-08-06T18:57:54;2.63;;;0.77;;
80340;SDS011;69656;44.498;0.166;2023-08-06T19:03:27;2.03;;;0.80;;
80340;SDS011;69656;44.498;0.166;2023-08-06T19:09:00;3.93;;;0.80;;
80340;SDS011;69656;44.498;0.166;2023-08-06T19:14:32;2.73;;;0.73;;
80340;SDS011;69656;44.498;0.166;2023-08-06T19:20:07;1.70;;;0.50;;
80340;SDS011;69656;44.498;0.166;2023-08-06T19:25:40;3.93;;;1.80;;
80340;SDS011;69656;44.498;0.166;2023-08-06T19:31:12;5.17;;;0.50;;
80340;SDS011;69656;44.498;0.166;2023-08-06T19:36:44;4.07;;;0.83;;
80340;SDS011;69656;44.498;0.166;2023-08-06T19:42:17;10.40;;;0.80;;
80340;SDS011;69656;44.498;0.166;2023-08-06T19:47:49;3.30;;;0.70;;
80340;SDS011;69656;44.498;0.166;2023-08-06T19:53:22;3.00;;;0.97;;
80340;SDS011;69656;44.498;0.166;2023-08-06T19:58:54;3.83;;;0.87;;
80340;SDS011;69656;44.498;0.166;2023-08-06T20:04:27;1.53;;;0.50;;
80340;SDS011;69656;44.498;0.166;2023-08-06T20:10:00;1.37;;;0.50;;
80340;SDS011;69656;44.498;0.166;2023-08-06T20:15:32;1.70;;;0.63;;
80340;SDS011;69656;44.498;0.166;2023-08-06T20:21:05;5.77;;;1.50;;
80340;SDS011;69656;44.498;0.166;2023-08-06T20:26:37;4.17;;;0.70;;
80340;SDS011;69656;44.498;0.166;2023-08-06T20:32:10;1.10;;;0.40;;
80340;SDS011;69656;44.498;0.166;2023-08-06T20:37:42;3.13;;;0.50;;
80340;SDS011;69656;44.498;0.166;2023-08-06T20:43:14;2.27;;;0.73;;
80340;SDS011;69656;44.498;0.166;2023-08-06T20:48:46;4.13;;;1.23;;
80340;SDS011;69656;44.498;0.166;2023-08-06T20:54:19;1.87;;;0.67;;
80340;SDS011;69656;44.498;0.166;2023-08-06T20:59:50;4.10;;;0.77;;
80340;SDS011;69656;44.498;0.166;2023-08-06T21:05:22;2.30;;;0.60;;
80340;SDS011;69656;44.498;0.166;2023-08-06T21:10:56;4.67;;;0.70;;
80340;SDS011;69656;44.498;0.166;2023-08-06T21:16:28;1.33;;;0.70;;
80340;SDS011;69656;44.498;0.166;2023-08-06T21:22:02;5.40;;;0.67;;
80340;SDS011;69656;44.498;0.166;2023-08-06T21:27:35;1.03;;;0.60;;
80340;SDS011;69656;44.498;0.166;2023-08-06T21:33:09;1.80;;;0.77;;
80340;SDS011;69656;44.498;0.166;2023-08-06T21:38:41;2.57;;;0.70;;
80340;SDS011;69656;44.498;0.166;2023-08-06T21:44:14;4.07;;;0.83;;
80340;SDS011;69656;44.498;0.166;2023-08-06T21:49:46;3.37;;;1.40;;
80340;SDS011;69656;44.498;0.166;2023-08-06T21:55:18;1.80;;;0.90;;
80340;SDS011;69656;44.498;0.166;2023-08-06T22:00:51;1.33;;;0.60;;
80340;SDS011;69656;44.498;0.166;2023-08-06T22:06:23;6.57;;;0.87;;
80340;SDS011;69656;44.498;0.166;2023-08-06T22:11:57;2.80;;;0.97;;
80340;SDS011;69656;44.498;0.166;2023-08-06T22:17:29;2.27;;;0.80;;
80340;SDS011;69656;44.498;0.166;2023-08-06T22:23:03;1.70;;;0.80;;
80340;SDS011;69656;44.498;0.166;2023-08-06T22:28:35;4.73;;;1.13;;
80340;SDS011;69656;44.498;0.166;2023-08-06T22:34:08;5.30;;;0.80;;
80340;SDS011;69656;44.498;0.166;2023-08-06T22:39:41;3.90;;;0.80;;
80340;SDS011;69656;44.498;0.166;2023-08-06T22:45:15;2.30;;;0.63;;
80340;SDS011;69656;44.498;0.166;2023-08-06T22:50:48;2.30;;;0.80;;
80340;SDS011;69656;44.498;0.166;2023-08-06T22:56:22;2.87;;;0.83;;
80340;SDS011;69656;44.498;0.166;2023-08-06T23:01:54;5.77;;;0.93;;
80340;SDS011;69656;44.498;0.166;2023-08-06T23:07:27;5.70;;;1.20;;
80340;SDS011;69656;44.498;0.166;2023-08-06T23:12:59;7.37;;;3.03;;
80340;SDS011;69656;44.498;0.166;2023-08-06T23:18:31;3.93;;;0.70;;
80340;SDS011;69656;44.498;0.166;2023-08-06T23:24:05;5.73;;;0.73;;
80340;SDS011;69656;44.498;0.166;2023-08-06T23:29:37;6.20;;;1.30;;
80340;SDS011;69656;44.498;0.166;2023-08-06T23:35:09;1.27;;;0.70;;
80340;SDS011;69656;44.498;0.166;2023-08-06T23:40:41;4.93;;;1.27;;
80340;SDS011;69656;44.498;0.166;2023-08-06T23:46:14;2.60;;;0.70;;
80340;SDS011;69656;44.498;0.166;2023-08-06T23:51:48;5.37;;;1.63;;
80340;SDS011;69656;44.498;0.166;2023-08-06T23:57:22;5.00;;;0.97;;
